sensor_id;sensor_type;location;lat;lon;timestamp;P1;durP1;ratioP1;P2;durP2;ratioP2
55220;SDS011;41089;51.448;6.604;2023-06-22T00:01:40;7.93;;;6.88;;
55220;SDS011;41089;51.448;6.604;2023-06-22T00:07:40;10.73;;;7.55;;
55220;SDS011;41089;51.448;6.604;2023-06-22T00:13:41;9.23;;;8.05;;
55220;SDS011;41089;51.448;6.604;2023-06-22T00:19:41;9.20;;;8.40;;
55220;SDS011;41089;51.448;6.604;2023-06-22T00:25:41;11.75;;;8.27;;
55220;SDS011;41089;51.448;6.604;2023-06-22T00:31:42;10.00;;;8.20;;
55220;SDS011;41089;51.448;6.604;2023-06-22T00:37:45;12.93;;;9.30;;
55220;SDS011;41089;51.448;6.604;2023-06-22T00:43:46;11.23;;;9.55;;
55220;SDS011;41089;51.448;6.604;2023-06-22T00:49:47;10.03;;;8.70;;
55220;SDS011;41089;51.448;6.604;2023-06-22T00:55:48;10.88;;;8.70;;
55220;SDS011;41089;51.448;6.604;2023-06-22T01:01:51;11.13;;;9.43;;
55220;SDS011;41089;51.448;6.604;2023-06-22T01:14:10;13.70;;;9.88;;
55220;SDS011;41089;51.448;6.604;2023-06-22T01:20:14;13.15;;;9.35;;
55220;SDS011;41089;51.448;6.604;2023-06-22T01:26:19;14.38;;;9.60;;
55220;SDS011;41089;51.448;6.604;2023-06-22T01:32:22;11.80;;;9.88;;
55220;SDS011;41089;51.448;6.604;2023-06-22T01:38:23;13.57;;;10.27;;
55220;SDS011;41089;51.448;6.604;2023-06-22T01:44:23;13.80;;;10.23;;
55220;SDS011;41089;51.448;6.604;2023-06-22T01:50:25;13.20;;;10.40;;
55220;SDS011;41089;51.448;6.604;2023-06-22T01:56:25;12.45;;;11.07;;
55220;SDS011;41089;51.448;6.604;2023-06-22T02:02:27;12.43;;;11.23;;
55220;SDS011;41089;51.448;6.604;2023-06-22T02:08:35;13.27;;;11.88;;
55220;SDS011;41089;51.448;6.604;2023-06-22T02:14:41;11.57;;;10.38;;
55220;SDS011;41089;51.448;6.604;2023-06-22T02:20:41;14.80;;;12.40;;
55220;SDS011;41089;51.448;6.604;2023-06-22T02:26:43;13.55;;;12.05;;
55220;SDS011;41089;51.448;6.604;2023-06-22T02:32:45;13.70;;;11.70;;
55220;SDS011;41089;51.448;6.604;2023-06-22T02:38:46;15.73;;;12.60;;
55220;SDS011;41089;51.448;6.604;2023-06-22T02:44:48;13.32;;;12.02;;
55220;SDS011;41089;51.448;6.604;2023-06-22T02:50:48;12.70;;;11.60;;
55220;SDS011;41089;51.448;6.604;2023-06-22T02:56:49;14.48;;;12.98;;
55220;SDS011;41089;51.448;6.604;2023-06-22T03:02:50;16.55;;;12.20;;
55220;SDS011;41089;51.448;6.604;2023-06-22T03:08:51;13.57;;;12.18;;
55220;SDS011;41089;51.448;6.604;2023-06-22T03:14:51;15.90;;;13.70;;
55220;SDS011;41089;51.448;6.604;2023-06-22T03:20:52;15.37;;;13.27;;
55220;SDS011;41089;51.448;6.604;2023-06-22T03:26:52;15.80;;;14.17;;
55220;SDS011;41089;51.448;6.604;2023-06-22T03:32:52;14.95;;;13.63;;
55220;SDS011;41089;51.448;6.604;2023-06-22T03:38:53;16.23;;;14.73;;
55220;SDS011;41089;51.448;6.604;2023-06-22T03:44:53;15.90;;;14.33;;
55220;SDS011;41089;51.448;6.604;2023-06-22T03:50:54;15.77;;;14.20;;
55220;SDS011;41089;51.448;6.604;2023-06-22T03:56:54;14.13;;;12.73;;
55220;SDS011;41089;51.448;6.604;2023-06-22T04:02:58;16.02;;;14.43;;
55220;SDS011;41089;51.448;6.604;2023-06-22T04:08:58;15.35;;;13.88;;
55220;SDS011;41089;51.448;6.604;2023-06-22T04:15:00;16.55;;;14.95;;
55220;SDS011;41089;51.448;6.604;2023-06-22T04:21:01;16.17;;;14.20;;
55220;SDS011;41089;51.448;6.604;2023-06-22T04:27:03;17.42;;;15.50;;
55220;SDS011;41089;51.448;6.604;2023-06-22T04:33:04;17.38;;;15.60;;
55220;SDS011;41089;51.448;6.604;2023-06-22T04:39:05;17.73;;;15.87;;
55220;SDS011;41089;51.448;6.604;2023-06-22T04:45:06;19.83;;;16.90;;
55220;SDS011;41089;51.448;6.604;2023-06-22T04:51:07;17.27;;;15.57;;
55220;SDS011;41089;51.448;6.604;2023-06-22T04:57:08;18.45;;;16.27;;
55220;SDS011;41089;51.448;6.604;2023-06-22T05:03:11;18.67;;;16.70;;
55220;SDS011;41089;51.448;6.604;2023-06-22T05:09:12;21.23;;;17.27;;
55220;SDS011;41089;51.448;6.604;2023-06-22T05:15:12;16.70;;;15.00;;
55220;SDS011;41089;51.448;6.604;2023-06-22T05:21:13;18.17;;;16.27;;
55220;SDS011;41089;51.448;6.604;2023-06-22T05:27:13;19.05;;;15.95;;
55220;SDS011;41089;51.448;6.604;2023-06-22T05:33:14;19.40;;;14.85;;
55220;SDS011;41089;51.448;6.604;2023-06-22T05:39:15;17.77;;;15.00;;
55220;SDS011;41089;51.448;6.604;2023-06-22T05:45:15;20.75;;;16.27;;
55220;SDS011;41089;51.448;6.604;2023-06-22T05:51:16;17.52;;;15.73;;
55220;SDS011;41089;51.448;6.604;2023-06-22T05:57:16;23.30;;;16.93;;
55220;SDS011;41089;51.448;6.604;2023-06-22T06:03:16;21.52;;;16.27;;
55220;SDS011;41089;51.448;6.604;2023-06-22T06:09:17;19.43;;;16.43;;
55220;SDS011;41089;51.448;6.604;2023-06-22T06:15:17;19.10;;;15.67;;
55220;SDS011;41089;51.448;6.604;2023-06-22T06:21:19;19.35;;;16.25;;
55220;SDS011;41089;51.448;6.604;2023-06-22T06:27:19;18.77;;;16.45;;
55220;SDS011;41089;51.448;6.604;2023-06-22T06:33:20;18.50;;;16.43;;
55220;SDS011;41089;51.448;6.604;2023-06-22T06:39:21;19.15;;;17.10;;
55220;SDS011;41089;51.448;6.604;2023-06-22T06:45:22;22.60;;;17.15;;
55220;SDS011;41089;51.448;6.604;2023-06-22T06:51:23;21.63;;;18.33;;
55220;SDS011;41089;51.448;6.604;2023-06-22T06:57:24;20.48;;;18.23;;
55220;SDS011;41089;51.448;6.604;2023-06-22T07:03:28;18.42;;;16.52;;
55220;SDS011;41089;51.448;6.604;2023-06-22T07:09:29;18.88;;;15.73;;
55220;SDS011;41089;51.448;6.604;2023-06-22T07:15:30;17.75;;;15.95;;
55220;SDS011;41089;51.448;6.604;2023-06-22T07:21:32;18.05;;;16.17;;
55220;SDS011;41089;51.448;6.604;2023-06-22T07:27:38;18.70;;;16.08;;
55220;SDS011;41089;51.448;6.604;2023-06-22T07:33:42;17.25;;;15.32;;
55220;SDS011;41089;51.448;6.604;2023-06-22T07:39:43;18.80;;;15.35;;
55220;SDS011;41089;51.448;6.604;2023-06-22T07:45:48;19.08;;;17.08;;
55220;SDS011;41089;51.448;6.604;2023-06-22T07:51:58;18.37;;;15.73;;
55220;SDS011;41089;51.448;6.604;2023-06-22T07:57:58;16.42;;;14.65;;
55220;SDS011;41089;51.448;6.604;2023-06-22T08:04:00;17.63;;;15.83;;
55220;SDS011;41089;51.448;6.604;2023-06-22T08:10:01;18.23;;;15.57;;
55220;SDS011;41089;51.448;6.604;2023-06-22T08:16:01;18.42;;;16.60;;
55220;SDS011;41089;51.448;6.604;2023-06-22T08:22:01;19.30;;;15.83;;
55220;SDS011;41089;51.448;6.604;2023-06-22T08:28:03;19.40;;;16.38;;
55220;SDS011;41089;51.448;6.604;2023-06-22T08:34:03;19.15;;;17.33;;
55220;SDS011;41089;51.448;6.604;2023-06-22T08:40:05;20.33;;;18.00;;
55220;SDS011;41089;51.448;6.604;2023-06-22T08:46:09;21.30;;;19.02;;
55220;SDS011;41089;51.448;6.604;2023-06-22T08:52:11;21.50;;;18.50;;
55220;SDS011;41089;51.448;6.604;2023-06-22T08:58:11;21.97;;;19.67;;
55220;SDS011;41089;51.448;6.604;2023-06-22T09:04:14;22.37;;;20.07;;
55220;SDS011;41089;51.448;6.604;2023-06-22T09:10:15;22.25;;;19.90;;
55220;SDS011;41089;51.448;6.604;2023-06-22T09:16:15;20.65;;;18.75;;
55220;SDS011;41089;51.448;6.604;2023-06-22T09:22:16;21.30;;;19.13;;
55220;SDS011;41089;51.448;6.604;2023-06-22T09:28:17;22.42;;;20.25;;
55220;SDS011;41089;51.448;6.604;2023-06-22T09:34:17;20.50;;;18.50;;
55220;SDS011;41089;51.448;6.604;2023-06-22T09:40:20;21.50;;;19.25;;
55220;SDS011;41089;51.448;6.604;2023-06-22T09:46:20;20.88;;;18.77;;
55220;SDS011;41089;51.448;6.604;2023-06-22T09:52:22;23.52;;;17.55;;
55220;SDS011;41089;51.448;6.604;2023-06-22T09:58:22;22.55;;;18.20;;
55220;SDS011;41089;51.448;6.604;2023-06-22T10:04:23;22.88;;;17.92;;
55220;SDS011;41089;51.448;6.604;2023-06-22T10:10:24;19.50;;;17.40;;
55220;SDS011;41089;51.448;6.604;2023-06-22T10:16:29;19.63;;;16.63;;
55220;SDS011;41089;51.448;6.604;2023-06-22T10:22:30;19.85;;;17.95;;
55220;SDS011;41089;51.448;6.604;2023-06-22T10:28:31;19.33;;;17.33;;
55220;SDS011;41089;51.448;6.604;2023-06-22T10:34:31;20.63;;;18.63;;
55220;SDS011;41089;51.448;6.604;2023-06-22T10:40:32;21.87;;;17.97;;
55220;SDS011;41089;51.448;6.604;2023-06-22T10:46:33;20.37;;;18.47;;
55220;SDS011;41089;51.448;6.604;2023-06-22T10:52:34;20.55;;;18.17;;
55220;SDS011;41089;51.448;6.604;2023-06-22T10:58:34;18.90;;;16.97;;
55220;SDS011;41089;51.448;6.604;2023-06-22T11:04:35;19.43;;;17.47;;
55220;SDS011;41089;51.448;6.604;2023-06-22T11:10:35;18.42;;;16.67;;
55220;SDS011;41089;51.448;6.604;2023-06-22T11:16:36;18.98;;;16.83;;
55220;SDS011;41089;51.448;6.604;2023-06-22T11:22:37;18.60;;;16.80;;
55220;SDS011;41089;51.448;6.604;2023-06-22T11:28:39;20.33;;;18.33;;
55220;SDS011;41089;51.448;6.604;2023-06-22T11:34:39;21.37;;;19.27;;
55220;SDS011;41089;51.448;6.604;2023-06-22T11:40:40;21.15;;;19.13;;
55220;SDS011;41089;51.448;6.604;2023-06-22T11:46:40;25.42;;;22.30;;
55220;SDS011;41089;51.448;6.604;2023-06-22T11:52:40;27.05;;;24.13;;
55220;SDS011;41089;51.448;6.604;2023-06-22T11:58:42;34.33;;;29.30;;
55220;SDS011;41089;51.448;6.604;2023-06-22T12:04:42;29.88;;;26.73;;
55220;SDS011;41089;51.448;6.604;2023-06-22T12:10:45;29.37;;;26.67;;
55220;SDS011;41089;51.448;6.604;2023-06-22T12:16:45;30.35;;;27.63;;
55220;SDS011;41089;51.448;6.604;2023-06-22T12:22:45;33.25;;;30.15;;
55220;SDS011;41089;51.448;6.604;2023-06-22T12:28:47;32.58;;;29.55;;
55220;SDS011;41089;51.448;6.604;2023-06-22T12:34:48;31.33;;;28.37;;
55220;SDS011;41089;51.448;6.604;2023-06-22T12:40:49;28.87;;;25.97;;
55220;SDS011;41089;51.448;6.604;2023-06-22T12:46:49;25.63;;;23.27;;
55220;SDS011;41089;51.448;6.604;2023-06-22T12:52:50;27.13;;;24.63;;
55220;SDS011;41089;51.448;6.604;2023-06-22T12:58:50;27.80;;;25.30;;
55220;SDS011;41089;51.448;6.604;2023-06-22T13:04:51;28.07;;;25.17;;
55220;SDS011;41089;51.448;6.604;2023-06-22T13:10:51;27.30;;;24.73;;
55220;SDS011;41089;51.448;6.604;2023-06-22T13:16:51;25.40;;;23.10;;
55220;SDS011;41089;51.448;6.604;2023-06-22T13:22:52;25.83;;;23.43;;
55220;SDS011;41089;51.448;6.604;2023-06-22T13:28:53;24.15;;;21.85;;
55220;SDS011;41089;51.448;6.604;2023-06-22T13:34:54;25.95;;;23.58;;
55220;SDS011;41089;51.448;6.604;2023-06-22T13:40:54;26.05;;;23.75;;
55220;SDS011;41089;51.448;6.604;2023-06-22T13:46:57;26.33;;;24.00;;
55220;SDS011;41089;51.448;6.604;2023-06-22T13:52:58;25.73;;;23.42;;
55220;SDS011;41089;51.448;6.604;2023-06-22T13:58:58;27.00;;;24.20;;
55220;SDS011;41089;51.448;6.604;2023-06-22T14:04:59;26.55;;;24.25;;
55220;SDS011;41089;51.448;6.604;2023-06-22T14:10:59;25.97;;;23.57;;
55220;SDS011;41089;51.448;6.604;2023-06-22T14:17:00;29.40;;;26.70;;
55220;SDS011;41089;51.448;6.604;2023-06-22T14:23:00;30.93;;;28.13;;
55220;SDS011;41089;51.448;6.604;2023-06-22T14:29:01;31.67;;;28.88;;
55220;SDS011;41089;51.448;6.604;2023-06-22T14:35:01;31.52;;;28.42;;
55220;SDS011;41089;51.448;6.604;2023-06-22T14:41:02;29.65;;;27.02;;
55220;SDS011;41089;51.448;6.604;2023-06-22T14:47:02;29.25;;;26.38;;
55220;SDS011;41089;51.448;6.604;2023-06-22T14:53:03;31.73;;;28.73;;
55220;SDS011;41089;51.448;6.604;2023-06-22T14:59:03;29.98;;;27.15;;
55220;SDS011;41089;51.448;6.604;2023-06-22T15:05:04;30.85;;;27.98;;
55220;SDS011;41089;51.448;6.604;2023-06-22T15:11:05;29.15;;;26.42;;
55220;SDS011;41089;51.448;6.604;2023-06-22T15:17:06;32.03;;;29.00;;
55220;SDS011;41089;51.448;6.604;2023-06-22T15:23:08;31.88;;;28.95;;
55220;SDS011;41089;51.448;6.604;2023-06-22T15:29:09;31.83;;;28.80;;
55220;SDS011;41089;51.448;6.604;2023-06-22T15:35:10;33.37;;;30.23;;
55220;SDS011;41089;51.448;6.604;2023-06-22T15:41:11;29.42;;;26.58;;
55220;SDS011;41089;51.448;6.604;2023-06-22T15:47:12;27.70;;;25.15;;
55220;SDS011;41089;51.448;6.604;2023-06-22T15:53:12;25.83;;;23.33;;
55220;SDS011;41089;51.448;6.604;2023-06-22T15:59:13;31.52;;;27.83;;
55220;SDS011;41089;51.448;6.604;2023-06-22T16:05:13;28.95;;;26.15;;
55220;SDS011;41089;51.448;6.604;2023-06-22T16:11:14;33.35;;;30.15;;
55220;SDS011;41089;51.448;6.604;2023-06-22T16:17:14;34.70;;;31.10;;
55220;SDS011;41089;51.448;6.604;2023-06-22T16:23:15;36.55;;;32.72;;
55220;SDS011;41089;51.448;6.604;2023-06-22T16:29:15;38.72;;;34.70;;
55220;SDS011;41089;51.448;6.604;2023-06-22T16:35:16;41.30;;;35.67;;
55220;SDS011;41089;51.448;6.604;2023-06-22T16:41:18;43.30;;;38.03;;
55220;SDS011;41089;51.448;6.604;2023-06-22T16:47:19;39.00;;;34.83;;
55220;SDS011;41089;51.448;6.604;2023-06-22T16:53:20;42.00;;;36.75;;
55220;SDS011;41089;51.448;6.604;2023-06-22T16:59:21;44.45;;;38.67;;
55220;SDS011;41089;51.448;6.604;2023-06-22T17:05:22;39.72;;;35.53;;
55220;SDS011;41089;51.448;6.604;2023-06-22T17:11:23;43.45;;;38.88;;
55220;SDS011;41089;51.448;6.604;2023-06-22T17:17:24;43.33;;;38.05;;
55220;SDS011;41089;51.448;6.604;2023-06-22T17:23:27;43.22;;;38.80;;
55220;SDS011;41089;51.448;6.604;2023-06-22T17:29:28;45.80;;;41.20;;
55220;SDS011;41089;51.448;6.604;2023-06-22T17:35:45;46.50;;;41.42;;
55220;SDS011;41089;51.448;6.604;2023-06-22T17:41:47;51.28;;;46.03;;
55220;SDS011;41089;51.448;6.604;2023-06-22T17:47:49;53.97;;;48.45;;
55220;SDS011;41089;51.448;6.604;2023-06-22T17:53:51;43.13;;;38.80;;
55220;SDS011;41089;51.448;6.604;2023-06-22T17:59:51;39.08;;;35.17;;
55220;SDS011;41089;51.448;6.604;2023-06-22T18:05:52;38.20;;;34.57;;
55220;SDS011;41089;51.448;6.604;2023-06-22T18:11:54;37.53;;;33.83;;
55220;SDS011;41089;51.448;6.604;2023-06-22T18:17:57;28.30;;;25.60;;
55220;SDS011;41089;51.448;6.604;2023-06-22T18:23:58;32.65;;;29.30;;
55220;SDS011;41089;51.448;6.604;2023-06-22T18:29:59;32.10;;;28.90;;
55220;SDS011;41089;51.448;6.604;2023-06-22T18:36:01;28.23;;;25.42;;
55220;SDS011;41089;51.448;6.604;2023-06-22T18:42:02;28.20;;;25.25;;
55220;SDS011;41089;51.448;6.604;2023-06-22T18:48:09;26.20;;;23.48;;
55220;SDS011;41089;51.448;6.604;2023-06-22T18:54:09;33.45;;;30.15;;
55220;SDS011;41089;51.448;6.604;2023-06-22T19:00:19;28.27;;;25.37;;
55220;SDS011;41089;51.448;6.604;2023-06-22T19:12:53;15.77;;;14.27;;
55220;SDS011;41089;51.448;6.604;2023-06-22T19:18:54;14.48;;;12.10;;
55220;SDS011;41089;51.448;6.604;2023-06-22T19:24:56;12.13;;;10.90;;
55220;SDS011;41089;51.448;6.604;2023-06-22T19:31:00;13.57;;;12.18;;
55220;SDS011;41089;51.448;6.604;2023-06-22T19:37:02;13.40;;;12.00;;
55220;SDS011;41089;51.448;6.604;2023-06-22T19:43:13;11.75;;;9.90;;
55220;SDS011;41089;51.448;6.604;2023-06-22T19:49:15;12.10;;;10.20;;
55220;SDS011;41089;51.448;6.604;2023-06-22T19:55:17;15.55;;;10.63;;
55220;SDS011;41089;51.448;6.604;2023-06-22T20:01:18;13.27;;;11.98;;
55220;SDS011;41089;51.448;6.604;2023-06-22T20:07:18;12.33;;;11.13;;
55220;SDS011;41089;51.448;6.604;2023-06-22T20:13:19;13.90;;;12.60;;
55220;SDS011;41089;51.448;6.604;2023-06-22T20:19:37;14.50;;;13.10;;
55220;SDS011;41089;51.448;6.604;2023-06-22T20:25:41;15.65;;;14.05;;
55220;SDS011;41089;51.448;6.604;2023-06-22T20:31:42;20.45;;;15.32;;
55220;SDS011;41089;51.448;6.604;2023-06-22T20:37:43;17.00;;;14.93;;
55220;SDS011;41089;51.448;6.604;2023-06-22T20:43:43;19.50;;;15.15;;
55220;SDS011;41089;51.448;6.604;2023-06-22T20:49:44;16.17;;;14.57;;
55220;SDS011;41089;51.448;6.604;2023-06-22T20:55:44;13.57;;;12.27;;
55220;SDS011;41089;51.448;6.604;2023-06-22T21:01:44;17.17;;;14.07;;
55220;SDS011;41089;51.448;6.604;2023-06-22T21:07:46;14.57;;;13.00;;
55220;SDS011;41089;51.448;6.604;2023-06-22T21:13:47;14.88;;;13.27;;
55220;SDS011;41089;51.448;6.604;2023-06-22T21:19:47;18.17;;;16.25;;
55220;SDS011;41089;51.448;6.604;2023-06-22T21:25:47;16.87;;;15.17;;
55220;SDS011;41089;51.448;6.604;2023-06-22T21:31:49;18.85;;;15.40;;
55220;SDS011;41089;51.448;6.604;2023-06-22T21:37:50;21.17;;;15.68;;
55220;SDS011;41089;51.448;6.604;2023-06-22T21:43:50;20.10;;;13.93;;
55220;SDS011;41089;51.448;6.604;2023-06-22T21:49:50;14.23;;;12.73;;
55220;SDS011;41089;51.448;6.604;2023-06-22T21:55:51;13.68;;;12.27;;
55220;SDS011;41089;51.448;6.604;2023-06-22T22:01:52;16.60;;;13.83;;
55220;SDS011;41089;51.448;6.604;2023-06-22T22:07:54;12.98;;;11.55;;
55220;SDS011;41089;51.448;6.604;2023-06-22T22:13:54;13.03;;;11.73;;
55220;SDS011;41089;51.448;6.604;2023-06-22T22:19:55;13.53;;;12.13;;
55220;SDS011;41089;51.448;6.604;2023-06-22T22:25:55;12.27;;;9.65;;
55220;SDS011;41089;51.448;6.604;2023-06-22T22:31:56;12.10;;;10.93;;
55220;SDS011;41089;51.448;6.604;2023-06-22T22:37:56;11.63;;;9.00;;
55220;SDS011;41089;51.448;6.604;2023-06-22T22:43:57;11.38;;;10.13;;
55220;SDS011;41089;51.448;6.604;2023-06-22T22:49:58;12.43;;;10.05;;
55220;SDS011;41089;51.448;6.604;2023-06-22T22:55:58;10.75;;;9.75;;
55220;SDS011;41089;51.448;6.604;2023-06-22T23:01:59;11.27;;;8.93;;
55220;SDS011;41089;51.448;6.604;2023-06-22T23:08:00;11.30;;;9.93;;
55220;SDS011;41089;51.448;6.604;2023-06-22T23:14:03;12.80;;;10.02;;
55220;SDS011;41089;51.448;6.604;2023-06-22T23:20:04;10.70;;;9.67;;
55220;SDS011;41089;51.448;6.604;2023-06-22T23:26:06;13.52;;;9.70;;
55220;SDS011;41089;51.448;6.604;2023-06-22T23:32:07;11.70;;;10.50;;
55220;SDS011;41089;51.448;6.604;2023-06-22T23:38:08;11.07;;;9.85;;
55220;SDS011;41089;51.448;6.604;2023-06-22T23:44:09;12.20;;;9.00;;
55220;SDS011;41089;51.448;6.604;2023-06-22T23:50:10;17.93;;;10.27;;
55220;SDS011;41089;51.448;6.604;2023-06-22T23:56:11;10.98;;;9.77;;
